Time;durP1;ratioP1;P1;durP2;ratioP2;P2;SDS_P1;SDS_P2;PMS_P1;PMS_P2;Temp;Humidity;BMP_temperature;BMP_pressure;BME280_temperature;BME280_humidity;BME280_pressure;Samples;Min_cycle;Max_cycle;Signal;HPM_P1;HPM_P2
2023/12/23 00:01:57;;;;;;;;;;;24.00;99.90;;;;;;4970583;28;19918;-70
2023/12/23 00:04:24;;;;;;;;;;;24.20;99.90;;;;;;4970976;28;19910;-70
2023/12/23 00:06:51;;;;;;;;;;;24.10;99.90;;;;;;4971926;28;19910;-71
2023/12/23 00:09:18;;;;;;;;;;;24.20;99.90;;;;;;4971958;28;20276;-71
2023/12/23 00:11:44;;;;;;;;;;;24.10;99.90;;;;;;4971637;28;20001;-70
2023/12/23 00:14:11;;;;;;;;;;;24.30;99.90;;;;;;4971077;28;19914;-70
2023/12/23 00:16:38;;;;;;;;;;;24.30;99.90;;;;;;4971863;28;20012;-73
2023/12/23 00:19:05;;;;;;;;;;;24.40;99.90;;;;;;4971642;28;20332;-70
2023/12/23 00:21:32;;;;;;;;;;;24.50;99.90;;;;;;4969981;28;19910;-72
2023/12/23 00:23:58;;;;;;;;;;;24.70;99.90;;;;;;4971323;28;19920;-70
2023/12/23 00:26:25;;;;;;;;;;;24.80;99.90;;;;;;4971475;28;19911;-70
2023/12/23 00:28:52;;;;;;;;;;;24.80;99.90;;;;;;4959427;28;19914;-70
2023/12/23 00:31:19;;;;;;;;;;;24.80;99.90;;;;;;4965862;28;20270;-68
2023/12/23 00:33:47;;;;;;;;;;;24.80;99.90;;;;;;4960139;28;19922;-68
2023/12/23 00:36:14;;;;;;;;;;;24.80;99.90;;;;;;4960015;28;20367;-71
2023/12/23 00:38:41;;;;;;;;;;;24.90;99.90;;;;;;4962390;28;19915;-69
2023/12/23 00:41:07;;;;;;;;;;;25.00;99.90;;;;;;4963827;28;19914;-67
2023/12/23 00:43:34;;;;;;;;;;;25.10;99.90;;;;;;4964517;28;19922;-70
2023/12/23 00:46:00;;;;;;;;;;;24.90;99.90;;;;;;4962446;28;19933;-69
2023/12/23 00:48:27;;;;;;;;;;;24.80;99.90;;;;;;4972396;28;19914;-69
2023/12/23 00:50:54;;;;;;;;;;;24.80;99.90;;;;;;4974439;28;19914;-69
2023/12/23 00:53:25;;;;;;;;;;;24.90;99.90;;;;;;4960634;28;19914;-71
2023/12/23 00:55:55;;;;;;;;;;;25.00;99.90;;;;;;4968084;28;19958;-68
2023/12/23 00:58:22;;;;;;;;;;;25.10;99.90;;;;;;4962278;28;19910;-69
2023/12/23 01:00:48;;;;;;;;;;;25.30;99.90;;;;;;4958264;28;19921;-68
2023/12/23 01:03:15;;;;;;;;;;;25.40;99.90;;;;;;4957976;28;19911;-70
2023/12/23 01:05:41;;;;;;;;;;;25.50;99.90;;;;;;4964962;28;19984;-69
2023/12/23 01:08:08;;;;;;;;;;;25.40;99.90;;;;;;4960377;28;20438;-68
2023/12/23 01:10:35;;;;;;;;;;;25.30;99.90;;;;;;4966365;28;19914;-69
2023/12/23 01:13:01;;;;;;;;;;;25.20;99.90;;;;;;4964896;28;19918;-70
2023/12/23 01:15:28;;;;;;;;;;;25.10;99.90;;;;;;4964092;28;20379;-70
2023/12/23 01:17:55;;;;;;;;;;;25.00;99.90;;;;;;4965534;28;19960;-71
2023/12/23 01:20:21;;;;;;;;;;;25.00;99.90;;;;;;4969434;28;19915;-69
2023/12/23 01:22:48;;;;;;;;;;;24.90;99.90;;;;;;4962446;28;19923;-69
2023/12/23 01:25:15;;;;;;;;;;;25.00;99.90;;;;;;4954762;28;19969;-68
2023/12/23 01:27:42;;;;;;;;;;;25.30;99.90;;;;;;4954970;28;19918;-75
2023/12/23 01:30:09;;;;;;;;;;;25.50;99.90;;;;;;4955015;28;19918;-71
2023/12/23 01:32:35;;;;;;;;;;;25.40;99.90;;;;;;4954859;28;20371;-72
2023/12/23 01:35:02;;;;;;;;;;;25.30;99.90;;;;;;4955028;28;20363;-69
2023/12/23 01:37:28;;;;;;;;;;;25.20;99.90;;;;;;4954957;28;20351;-70
2023/12/23 01:39:55;;;;;;;;;;;25.10;99.90;;;;;;4954998;29;19937;-69
2023/12/23 01:42:22;;;;;;;;;;;24.90;99.90;;;;;;4954818;28;20446;-69
2023/12/23 01:44:48;;;;;;;;;;;24.90;99.90;;;;;;4954924;28;19938;-69
2023/12/23 01:47:15;;;;;;;;;;;25.30;99.90;;;;;;4954898;28;19910;-70
2023/12/23 01:49:42;;;;;;;;;;;25.70;99.90;;;;;;4954608;28;19910;-72
2023/12/23 01:52:09;;;;;;;;;;;26.00;99.90;;;;;;4954585;28;19910;-72
2023/12/23 01:54:35;;;;;;;;;;;26.20;99.80;;;;;;4954564;28;19922;-69
2023/12/23 01:57:02;;;;;;;;;;;26.10;99.40;;;;;;4954548;28;19911;-69
2023/12/23 01:59:29;;;;;;;;;;;26.40;99.90;;;;;;4954736;28;19910;-69
2023/12/23 02:01:55;;;;;;;;;;;26.70;99.40;;;;;;4954438;28;20332;-69
2023/12/23 02:04:22;;;;;;;;;;;27.20;98.70;;;;;;4954480;28;19911;-72
2023/12/23 02:06:49;;;;;;;;;;;27.60;98.10;;;;;;4954533;28;20390;-69
2023/12/23 02:09:15;;;;;;;;;;;28.10;97.20;;;;;;4954616;28;19911;-73
2023/12/23 02:11:57;;;;;;;;;;;28.40;97.20;;;;;;4954137;28;19942;-69
2023/12/23 02:14:31;;;;;;;;;;;28.70;97.10;;;;;;4954592;29;20364;-69
2023/12/23 02:16:58;;;;;;;;;;;28.80;96.10;;;;;;4954352;28;20326;-69
2023/12/23 02:19:25;;;;;;;;;;;28.80;96.20;;;;;;4954218;28;19941;-69
2023/12/23 02:21:51;;;;;;;;;;;28.70;95.20;;;;;;4954089;28;19922;-71
2023/12/23 02:24:18;;;;;;;;;;;28.50;95.10;;;;;;4954300;28;19914;-70
2023/12/23 02:26:49;;;;;;;;;;;28.60;95.20;;;;;;4953428;28;20005;-73
2023/12/23 02:29:17;;;;;;;;;;;28.70;95.00;;;;;;4954022;28;19918;-70
2023/12/23 02:31:44;;;;;;;;;;;28.70;94.70;;;;;;4954035;28;19940;-70
2023/12/23 02:34:11;;;;;;;;;;;28.80;95.10;;;;;;4954077;29;19926;-70
2023/12/23 02:36:39;;;;;;;;;;;29.00;96.50;;;;;;4954012;28;19917;-70
2023/12/23 02:39:05;;;;;;;;;;;29.00;94.60;;;;;;4953915;29;19917;-72
2023/12/23 02:41:32;;;;;;;;;;;29.30;94.40;;;;;;4954064;28;19918;-70
2023/12/23 02:43:59;;;;;;;;;;;29.30;94.60;;;;;;4953868;28;19925;-71
2023/12/23 02:46:25;;;;;;;;;;;29.20;93.70;;;;;;4953869;29;20356;-70
2023/12/23 02:48:52;;;;;;;;;;;29.20;94.60;;;;;;4953908;28;19911;-70
2023/12/23 02:51:18;;;;;;;;;;;29.50;93.90;;;;;;4953407;28;20363;-71
2023/12/23 02:53:45;;;;;;;;;;;29.40;93.10;;;;;;4953813;29;19917;-71
2023/12/23 02:56:12;;;;;;;;;;;29.60;93.00;;;;;;4953755;28;19914;-72
2023/12/23 02:58:38;;;;;;;;;;;29.60;94.40;;;;;;4953627;28;19911;-71
2023/12/23 03:01:08;;;;;;;;;;;29.80;93.00;;;;;;4952378;29;19957;-69
2023/12/23 03:03:34;;;;;;;;;;;29.70;92.80;;;;;;4954058;28;20326;-70
2023/12/23 03:06:01;;;;;;;;;;;30.00;92.90;;;;;;4953754;28;19917;-69
2023/12/23 03:08:28;;;;;;;;;;;30.70;92.50;;;;;;4952400;28;20274;-70
2023/12/23 03:10:54;;;;;;;;;;;31.00;91.20;;;;;;4953422;28;20038;-70
2023/12/23 03:13:21;;;;;;;;;;;31.30;91.10;;;;;;4953585;28;19910;-70
2023/12/23 03:15:47;;;;;;;;;;;31.20;91.50;;;;;;4953230;28;19928;-69
2023/12/23 03:18:14;;;;;;;;;;;32.10;90.70;;;;;;4953400;28;19915;-70
2023/12/23 03:20:41;;;;;;;;;;;33.10;89.00;;;;;;4953552;28;19915;-73
2023/12/23 03:23:07;;;;;;;;;;;33.80;87.90;;;;;;4953124;28;19923;-70
2023/12/23 03:25:34;;;;;;;;;;;33.30;86.50;;;;;;4953521;28;19911;-70
2023/12/23 03:28:00;;;;;;;;;;;32.70;88.60;;;;;;4953419;28;19945;-70
2023/12/23 03:30:27;;;;;;;;;;;32.00;88.50;;;;;;4953171;28;19915;-69
2023/12/23 03:32:54;;;;;;;;;;;32.60;90.10;;;;;;4953236;29;19937;-71
2023/12/23 03:35:20;;;;;;;;;;;33.70;86.90;;;;;;4952936;28;19918;-70
2023/12/23 03:37:47;;;;;;;;;;;34.50;85.40;;;;;;4953127;28;19960;-72
2023/12/23 03:40:14;;;;;;;;;;;35.40;83.60;;;;;;4953159;28;19964;-71
2023/12/23 03:42:40;;;;;;;;;;;36.20;83.20;;;;;;4953173;28;19918;-72
2023/12/23 03:45:07;;;;;;;;;;;37.30;80.50;;;;;;4952908;28;19917;-73
2023/12/23 03:47:34;;;;;;;;;;;37.90;76.90;;;;;;4952799;28;19917;-72
2023/12/23 03:50:01;;;;;;;;;;;37.30;76.90;;;;;;4953105;28;19910;-69
2023/12/23 03:52:28;;;;;;;;;;;37.80;75.60;;;;;;4952864;28;19919;-69
2023/12/23 03:54:56;;;;;;;;;;;37.60;75.00;;;;;;4952835;28;19923;-72
2023/12/23 03:57:22;;;;;;;;;;;36.20;76.50;;;;;;4951594;28;19914;-71
2023/12/23 03:59:49;;;;;;;;;;;36.50;76.90;;;;;;4952852;28;19952;-70
2023/12/23 04:02:16;;;;;;;;;;;37.10;75.40;;;;;;4952551;28;19918;-70
2023/12/23 04:04:42;;;;;;;;;;;37.50;75.70;;;;;;4952788;28;19911;-70
2023/12/23 04:07:09;;;;;;;;;;;37.40;73.20;;;;;;4952592;28;20284;-73
2023/12/23 04:09:35;;;;;;;;;;;37.60;74.90;;;;;;4952699;28;19918;-70
2023/12/23 04:12:02;;;;;;;;;;;37.90;75.20;;;;;;4952502;28;19911;-70
2023/12/23 04:14:29;;;;;;;;;;;38.80;70.50;;;;;;4952606;28;19985;-70
2023/12/23 04:16:55;;;;;;;;;;;38.80;71.00;;;;;;4952482;28;19911;-69
2023/12/23 04:19:22;;;;;;;;;;;38.30;71.60;;;;;;4952583;28;19910;-74
2023/12/23 04:21:49;;;;;;;;;;;39.10;70.90;;;;;;4952325;28;19919;-71
2023/12/23 04:24:15;;;;;;;;;;;39.50;69.70;;;;;;4952380;28;20378;-70
2023/12/23 04:26:42;;;;;;;;;;;39.80;69.40;;;;;;4952325;28;19917;-71
2023/12/23 04:29:08;;;;;;;;;;;39.10;67.90;;;;;;4952298;28;19946;-70
2023/12/23 04:31:35;;;;;;;;;;;39.10;68.60;;;;;;4952451;28;20348;-70
2023/12/23 04:34:02;;;;;;;;;;;39.00;68.70;;;;;;4952282;28;20351;-72
2023/12/23 04:36:29;;;;;;;;;;;38.10;68.80;;;;;;4952074;28;19914;-69
2023/12/23 04:38:56;;;;;;;;;;;37.30;70.50;;;;;;4952442;28;20375;-70
2023/12/23 04:41:22;;;;;;;;;;;37.50;69.70;;;;;;4952240;28;19910;-70
2023/12/23 04:43:49;;;;;;;;;;;38.10;69.90;;;;;;4952117;28;19911;-71
2023/12/23 04:46:16;;;;;;;;;;;38.50;68.20;;;;;;4952196;28;19915;-71
2023/12/23 04:48:43;;;;;;;;;;;37.90;67.90;;;;;;4952429;28;19917;-69
2023/12/23 04:51:10;;;;;;;;;;;36.10;70.70;;;;;;4951573;28;19915;-69
2023/12/23 04:53:36;;;;;;;;;;;36.40;71.60;;;;;;4951940;28;20382;-69
2023/12/23 04:56:03;;;;;;;;;;;36.90;69.60;;;;;;4951961;28;20332;-70
2023/12/23 04:58:30;;;;;;;;;;;36.00;71.20;;;;;;4951931;28;19917;-69
2023/12/23 05:00:56;;;;;;;;;;;35.10;71.60;;;;;;4951636;28;19911;-69
2023/12/23 05:03:23;;;;;;;;;;;35.30;72.40;;;;;;4951979;28;19910;-69
2023/12/23 05:05:49;;;;;;;;;;;35.90;71.20;;;;;;4951819;28;20383;-69
2023/12/23 05:08:16;;;;;;;;;;;35.70;71.20;;;;;;4951968;28;20001;-68
2023/12/23 05:10:46;;;;;;;;;;;34.80;72.90;;;;;;4951887;28;20360;-68
2023/12/23 05:13:13;;;;;;;;;;;34.10;74.40;;;;;;4952053;28;20320;-71
2023/12/23 05:15:39;;;;;;;;;;;34.90;72.50;;;;;;4951870;28;19958;-71
2023/12/23 05:18:06;;;;;;;;;;;35.40;71.10;;;;;;4951895;28;20001;-69
2023/12/23 05:20:32;;;;;;;;;;;33.80;74.50;;;;;;4951648;28;19917;-72
2023/12/23 05:22:59;;;;;;;;;;;33.00;74.20;;;;;;4951555;28;19929;-68
2023/12/23 05:25:26;;;;;;;;;;;31.30;77.30;;;;;;4951713;28;19918;-69
2023/12/23 05:27:52;;;;;;;;;;;30.70;81.30;;;;;;4951623;28;19926;-69
2023/12/23 05:30:19;;;;;;;;;;;30.60;81.70;;;;;;4951535;28;19918;-71
2023/12/23 05:32:46;;;;;;;;;;;30.20;79.60;;;;;;4951297;28;19997;-68
2023/12/23 05:35:12;;;;;;;;;;;30.20;82.80;;;;;;4951508;28;19958;-74
2023/12/23 05:37:39;;;;;;;;;;;30.90;81.50;;;;;;4951419;28;20367;-69
2023/12/23 05:40:06;;;;;;;;;;;31.80;79.40;;;;;;4951653;28;19946;-68
2023/12/23 05:42:33;;;;;;;;;;;32.40;76.90;;;;;;4951459;28;19917;-70
2023/12/23 05:44:59;;;;;;;;;;;32.30;77.20;;;;;;4951414;28;19922;-69
2023/12/23 05:47:27;;;;;;;;;;;32.20;78.90;;;;;;4951332;28;19911;-69
2023/12/23 05:49:53;;;;;;;;;;;32.70;77.80;;;;;;4951459;28;19949;-69
2023/12/23 05:52:20;;;;;;;;;;;32.80;77.90;;;;;;4951100;28;20276;-69
2023/12/23 05:54:48;;;;;;;;;;;32.20;78.40;;;;;;4951373;28;19918;-74
2023/12/23 05:57:15;;;;;;;;;;;31.70;80.20;;;;;;4951320;28;19926;-74
2023/12/23 05:59:41;;;;;;;;;;;31.10;81.80;;;;;;4951653;29;19917;-70
2023/12/23 06:02:08;;;;;;;;;;;30.20;81.50;;;;;;4951917;28;19926;-70
2023/12/23 06:04:34;;;;;;;;;;;29.30;84.00;;;;;;4954642;28;20425;-73
2023/12/23 06:07:01;;;;;;;;;;;29.20;85.00;;;;;;4954573;29;19911;-74
2023/12/23 06:09:28;;;;;;;;;;;29.20;86.30;;;;;;4954439;28;19917;-70
2023/12/23 06:11:54;;;;;;;;;;;28.70;86.10;;;;;;4954265;28;19997;-69
2023/12/23 06:14:21;;;;;;;;;;;28.50;87.10;;;;;;4961856;28;19921;-69
2023/12/23 06:16:48;;;;;;;;;;;28.00;87.70;;;;;;4973589;28;19922;-69
2023/12/23 06:19:14;;;;;;;;;;;27.60;88.60;;;;;;4972550;28;19914;-69
2023/12/23 06:21:45;;;;;;;;;;;27.20;90.00;;;;;;4972371;28;19921;-72
2023/12/23 06:24:12;;;;;;;;;;;27.10;90.50;;;;;;4973163;28;20395;-69
2023/12/23 06:26:39;;;;;;;;;;;27.00;90.80;;;;;;4972779;28;20021;-69
2023/12/23 06:29:06;;;;;;;;;;;26.50;91.80;;;;;;4963773;28;20001;-68
2023/12/23 06:31:33;;;;;;;;;;;26.30;92.20;;;;;;4961566;28;19918;-69
2023/12/23 06:34:00;;;;;;;;;;;26.00;93.00;;;;;;4966578;28;19918;-69
2023/12/23 06:36:26;;;;;;;;;;;25.80;93.70;;;;;;4955841;28;20291;-71
2023/12/23 06:38:53;;;;;;;;;;;26.00;93.80;;;;;;4952995;28;20352;-68
2023/12/23 06:41:20;;;;;;;;;;;25.90;93.20;;;;;;4960917;28;19922;-69
2023/12/23 06:43:47;;;;;;;;;;;25.50;94.10;;;;;;4972694;28;19917;-70
2023/12/23 06:46:13;;;;;;;;;;;25.30;95.80;;;;;;4961445;28;20386;-67
2023/12/23 06:48:40;;;;;;;;;;;25.10;95.80;;;;;;4962575;28;19997;-70
2023/12/23 06:51:07;;;;;;;;;;;25.10;96.90;;;;;;4963509;28;19911;-68
2023/12/23 06:53:34;;;;;;;;;;;25.30;96.70;;;;;;4966587;28;20435;-72
2023/12/23 06:56:04;;;;;;;;;;;25.10;96.40;;;;;;4971922;28;19999;-73
2023/12/23 06:58:30;;;;;;;;;;;24.90;97.50;;;;;;4961488;28;19934;-68
2023/12/23 07:00:57;;;;;;;;;;;24.90;98.00;;;;;;4956766;28;19973;-69
2023/12/23 07:03:23;;;;;;;;;;;25.10;97.60;;;;;;4961041;28;20390;-74
2023/12/23 07:05:50;;;;;;;;;;;25.10;97.40;;;;;;4966846;28;19917;-73
2023/12/23 07:08:17;;;;;;;;;;;25.10;97.80;;;;;;4957558;28;19918;-69
2023/12/23 07:10:44;;;;;;;;;;;25.30;97.10;;;;;;4962065;28;19914;-69
2023/12/23 07:13:10;;;;;;;;;;;25.00;97.70;;;;;;4961452;28;19911;-70
2023/12/23 07:15:37;;;;;;;;;;;24.90;97.90;;;;;;4961795;28;20024;-72
2023/12/23 07:18:04;;;;;;;;;;;25.00;97.60;;;;;;4960244;28;20099;-70
2023/12/23 07:20:30;;;;;;;;;;;24.80;97.80;;;;;;4958279;28;19910;-72
2023/12/23 07:22:57;;;;;;;;;;;24.60;98.30;;;;;;4958458;28;19926;-70
2023/12/23 07:25:24;;;;;;;;;;;24.50;99.20;;;;;;4959412;28;19914;-70
2023/12/23 07:27:50;;;;;;;;;;;24.60;99.50;;;;;;4972151;28;19918;-71
2023/12/23 07:30:17;;;;;;;;;;;24.70;99.50;;;;;;4959949;28;20059;-74
2023/12/23 07:32:48;;;;;;;;;;;24.80;99.20;;;;;;4960157;28;19945;-72
2023/12/23 07:35:16;;;;;;;;;;;24.20;99.90;;;;;;4962558;28;19931;-71
2023/12/23 07:37:43;;;;;;;;;;;24.20;99.90;;;;;;4960578;28;19920;-70
2023/12/23 07:40:10;;;;;;;;;;;24.20;99.90;;;;;;4960141;28;19911;-71
2023/12/23 07:42:36;;;;;;;;;;;24.10;99.90;;;;;;4958940;28;19992;-69
2023/12/23 07:45:03;;;;;;;;;;;23.90;99.90;;;;;;4960259;28;19914;-72
2023/12/23 07:47:30;;;;;;;;;;;23.80;99.90;;;;;;4962840;28;19978;-70
2023/12/23 07:49:57;;;;;;;;;;;23.80;99.90;;;;;;4957468;28;19915;-72
2023/12/23 07:52:23;;;;;;;;;;;23.80;99.90;;;;;;4958585;28;19985;-73
2023/12/23 07:54:52;;;;;;;;;;;23.70;99.90;;;;;;4959453;28;19971;-73
2023/12/23 07:57:19;;;;;;;;;;;23.60;99.90;;;;;;4960385;28;19980;-73
2023/12/23 07:59:46;;;;;;;;;;;23.70;99.90;;;;;;4959202;28;19911;-70
2023/12/23 08:02:16;;;;;;;;;;;23.50;99.90;;;;;;4960600;28;19942;-71
2023/12/23 08:04:43;;;;;;;;;;;23.30;99.90;;;;;;4954502;28;19930;-72
2023/12/23 08:07:09;;;;;;;;;;;23.30;99.90;;;;;;4960468;28;20318;-71
2023/12/23 08:09:37;;;;;;;;;;;23.30;99.90;;;;;;4960311;28;19910;-75
2023/12/23 08:12:04;;;;;;;;;;;23.20;99.90;;;;;;4966779;28;19914;-71
2023/12/23 08:14:31;;;;;;;;;;;23.20;99.90;;;;;;4962683;28;19973;-77
2023/12/23 08:16:57;;;;;;;;;;;23.20;99.90;;;;;;4960284;28;20363;-74
2023/12/23 08:19:24;;;;;;;;;;;23.10;99.90;;;;;;4962207;28;19956;-70
2023/12/23 08:21:50;;;;;;;;;;;23.20;99.90;;;;;;4959891;28;19919;-70
2023/12/23 08:24:17;;;;;;;;;;;23.30;99.90;;;;;;4990655;28;19945;-70
2023/12/23 08:26:47;;;;;;;;;;;23.30;99.90;;;;;;4963777;28;21242;-73
2023/12/23 08:29:14;;;;;;;;;;;23.30;99.90;;;;;;4961342;28;19911;-75
2023/12/23 08:31:44;;;;;;;;;;;23.30;99.90;;;;;;4962547;28;20663;-72
2023/12/23 08:34:10;;;;;;;;;;;23.20;99.90;;;;;;4961706;28;20626;-68
2023/12/23 08:36:37;;;;;;;;;;;23.20;99.90;;;;;;4957712;28;19959;-76
2023/12/23 08:39:06;;;;;;;;;;;23.10;99.90;;;;;;4957872;28;19918;-70
2023/12/23 08:41:36;;;;;;;;;;;23.10;99.90;;;;;;4959385;28;19933;-76
2023/12/23 08:44:03;;;;;;;;;;;23.00;99.90;;;;;;4963511;28;20363;-70
2023/12/23 08:46:30;;;;;;;;;;;23.00;99.90;;;;;;4963487;28;20286;-70
2023/12/23 08:48:57;;;;;;;;;;;22.90;99.90;;;;;;4963199;28;19948;-74
2023/12/23 08:51:29;;;;;;;;;;;23.00;99.90;;;;;;4959729;28;20407;-72
2023/12/23 08:53:56;;;;;;;;;;;22.80;99.90;;;;;;4960563;28;19961;-71
2023/12/23 08:56:22;;;;;;;;;;;22.80;99.90;;;;;;4954370;28;19925;-71
2023/12/23 08:58:49;;;;;;;;;;;22.70;99.90;;;;;;4965401;28;20282;-74
2023/12/23 09:01:15;;;;;;;;;;;22.70;99.90;;;;;;4966133;28;19910;-75
2023/12/23 09:03:42;;;;;;;;;;;22.60;99.90;;;;;;4966073;28;20285;-76
2023/12/23 09:06:11;;;;;;;;;;;22.50;99.90;;;;;;4960265;28;19921;-71
2023/12/23 09:08:38;;;;;;;;;;;22.60;99.90;;;;;;4961537;28;19914;-75
2023/12/23 09:11:05;;;;;;;;;;;22.60;99.90;;;;;;4970186;28;19910;-73
2023/12/23 09:13:32;;;;;;;;;;;22.70;99.90;;;;;;4969466;28;19910;-74
2023/12/23 09:16:00;;;;;;;;;;;22.70;99.90;;;;;;4970924;28;19958;-72
2023/12/23 09:18:26;;;;;;;;;;;22.60;99.90;;;;;;4970966;28;19910;-76
2023/12/23 09:20:53;;;;;;;;;;;22.60;99.90;;;;;;4970730;28;19940;-73
2023/12/23 09:23:20;;;;;;;;;;;22.60;99.90;;;;;;4970191;28;19922;-76
2023/12/23 09:25:46;;;;;;;;;;;22.60;99.90;;;;;;4970278;28;19914;-72
2023/12/23 09:28:17;;;;;;;;;;;22.50;99.90;;;;;;4970083;28;19914;-71
2023/12/23 09:30:43;;;;;;;;;;;22.60;99.90;;;;;;4968894;28;19956;-70
2023/12/23 09:33:10;;;;;;;;;;;22.50;99.90;;;;;;4969858;28;19906;-73
2023/12/23 09:35:37;;;;;;;;;;;22.50;99.90;;;;;;4970129;28;20260;-70
2023/12/23 09:38:03;;;;;;;;;;;22.50;99.90;;;;;;4974103;28;19910;-69
2023/12/23 09:40:30;;;;;;;;;;;22.50;99.90;;;;;;4974271;28;19933;-72
2023/12/23 09:42:59;;;;;;;;;;;22.60;99.90;;;;;;4974623;28;19914;-70
2023/12/23 09:45:26;;;;;;;;;;;22.50;99.90;;;;;;4974643;28;19917;-73
2023/12/23 09:47:52;;;;;;;;;;;22.50;99.90;;;;;;4974144;28;20384;-74
2023/12/23 09:50:19;;;;;;;;;;;22.50;99.90;;;;;;4974225;28;19911;-71
2023/12/23 09:52:51;;;;;;;;;;;22.50;99.90;;;;;;4973935;28;20343;-72
2023/12/23 09:55:18;;;;;;;;;;;22.50;99.90;;;;;;4974146;28;19941;-71
2023/12/23 09:57:45;;;;;;;;;;;22.40;99.90;;;;;;4974091;28;20410;-74
2023/12/23 10:00:12;;;;;;;;;;;22.40;99.90;;;;;;4974034;28;19910;-76
2023/12/23 10:02:39;;;;;;;;;;;22.40;99.90;;;;;;4973772;28;19910;-74
2023/12/23 10:05:06;;;;;;;;;;;22.30;99.90;;;;;;4973644;28;19917;-77
2023/12/23 10:07:33;;;;;;;;;;;22.30;99.90;;;;;;4972386;28;19910;-70
2023/12/23 10:10:00;;;;;;;;;;;22.30;99.90;;;;;;4973941;28;19917;-70
2023/12/23 10:12:26;;;;;;;;;;;22.30;99.90;;;;;;4973954;28;19964;-70
2023/12/23 10:14:53;;;;;;;;;;;22.20;99.90;;;;;;4973703;28;20328;-75
2023/12/23 10:17:20;;;;;;;;;;;22.20;99.90;;;;;;4973499;28;19910;-71
2023/12/23 10:19:47;;;;;;;;;;;22.20;99.90;;;;;;4973584;28;19910;-71
2023/12/23 10:22:17;;;;;;;;;;;22.30;99.90;;;;;;4973352;28;19922;-70
2023/12/23 10:24:44;;;;;;;;;;;22.40;99.90;;;;;;4973820;28;19940;-70
2023/12/23 10:27:11;;;;;;;;;;;22.40;99.90;;;;;;4974026;28;19910;-75
2023/12/23 10:29:40;;;;;;;;;;;22.40;99.90;;;;;;4973502;28;19914;-69
2023/12/23 10:32:12;;;;;;;;;;;22.30;99.90;;;;;;4971963;28;20385;-73
2023/12/23 10:34:50;;;;;;;;;;;22.20;99.90;;;;;;4973292;28;19918;-72
2023/12/23 10:37:17;;;;;;;;;;;22.20;99.90;;;;;;4973732;28;20367;-72
2023/12/23 10:39:47;;;;;;;;;;;22.30;99.90;;;;;;4973349;28;19924;-75
2023/12/23 10:42:20;;;;;;;;;;;22.30;99.90;;;;;;4973313;28;19914;-71
2023/12/23 10:44:48;;;;;;;;;;;22.30;99.90;;;;;;4973333;28;19910;-68
2023/12/23 10:47:15;;;;;;;;;;;22.30;99.90;;;;;;4973113;28;19917;-73
2023/12/23 10:49:44;;;;;;;;;;;22.20;99.90;;;;;;4971595;28;20378;-72
2023/12/23 10:52:13;;;;;;;;;;;22.20;99.90;;;;;;4973182;28;19989;-70
2023/12/23 10:54:39;;;;;;;;;;;22.20;99.90;;;;;;4971750;28;19922;-71
2023/12/23 10:57:07;;;;;;;;;;;22.20;99.90;;;;;;4973293;28;20476;-73
2023/12/23 10:59:33;;;;;;;;;;;22.20;99.90;;;;;;4973123;28;20248;-72
2023/12/23 11:02:02;;;;;;;;;;;22.30;99.90;;;;;;4973080;28;19910;-72
2023/12/23 11:04:29;;;;;;;;;;;22.30;99.90;;;;;;4972943;28;20371;-75
2023/12/23 11:06:58;;;;;;;;;;;22.30;99.90;;;;;;4972959;28;20005;-71
2023/12/23 11:09:25;;;;;;;;;;;22.20;99.90;;;;;;4973144;28;19942;-73
2023/12/23 11:11:52;;;;;;;;;;;22.20;99.90;;;;;;4972665;28;20363;-73
2023/12/23 11:14:18;;;;;;;;;;;22.10;99.90;;;;;;4972618;28;19965;-71
2023/12/23 11:16:45;;;;;;;;;;;22.20;99.90;;;;;;4972643;28;19960;-70
2023/12/23 11:19:12;;;;;;;;;;;22.20;99.90;;;;;;4972839;28;20359;-69
2023/12/23 11:21:39;;;;;;;;;;;22.10;99.90;;;;;;4972577;28;20367;-74
2023/12/23 11:24:25;;;;;;;;;;;22.10;99.90;;;;;;4972716;28;19915;-70
2023/12/23 11:26:53;;;;;;;;;;;22.10;99.90;;;;;;4972702;28;20325;-69
2023/12/23 11:29:22;;;;;;;;;;;22.10;99.90;;;;;;4972650;28;20430;-71
2023/12/23 11:31:49;;;;;;;;;;;22.10;99.90;;;;;;4972450;28;19910;-71
2023/12/23 11:34:17;;;;;;;;;;;22.00;99.90;;;;;;4972602;28;19922;-69
2023/12/23 11:36:44;;;;;;;;;;;22.00;99.90;;;;;;4972513;28;19910;-72
2023/12/23 11:39:13;;;;;;;;;;;22.10;99.90;;;;;;4972307;28;19916;-77
2023/12/23 11:41:41;;;;;;;;;;;22.10;99.90;;;;;;4972198;28;19920;-73
2023/12/23 11:44:10;;;;;;;;;;;22.00;99.90;;;;;;4972344;28;20391;-73
2023/12/23 11:46:40;;;;;;;;;;;22.00;99.90;;;;;;4972427;28;20359;-73
2023/12/23 11:49:10;;;;;;;;;;;22.00;99.90;;;;;;4972288;28;19910;-74
2023/12/23 11:51:39;;;;;;;;;;;22.00;99.90;;;;;;4972224;28;19911;-70
2023/12/23 11:54:07;;;;;;;;;;;22.10;99.90;;;;;;4971231;28;19914;-71
2023/12/23 11:56:34;;;;;;;;;;;21.90;99.90;;;;;;4972268;28;19921;-71
2023/12/23 11:59:01;;;;;;;;;;;21.90;99.90;;;;;;4971897;28;19911;-71
2023/12/23 12:01:31;;;;;;;;;;;21.90;99.90;;;;;;4971601;28;19911;-78
2023/12/23 12:03:57;;;;;;;;;;;21.90;99.90;;;;;;4971894;28;20374;-73
2023/12/23 12:06:25;;;;;;;;;;;21.90;99.90;;;;;;4971901;28;19966;-79
2023/12/23 12:08:53;;;;;;;;;;;21.90;99.90;;;;;;4971934;28;19915;-80
2023/12/23 12:11:19;;;;;;;;;;;21.90;99.90;;;;;;4969109;28;19965;-71
2023/12/23 12:13:47;;;;;;;;;;;22.00;99.90;;;;;;4952436;28;19915;-69
2023/12/23 12:16:14;;;;;;;;;;;21.90;99.90;;;;;;4952516;29;19919;-74
2023/12/23 12:18:41;;;;;;;;;;;21.80;99.90;;;;;;4951286;28;20445;-75
2023/12/23 12:21:08;;;;;;;;;;;21.80;99.90;;;;;;4952255;28;19950;-70
2023/12/23 12:23:35;;;;;;;;;;;21.90;99.90;;;;;;4952523;28;20336;-70
2023/12/23 12:26:01;;;;;;;;;;;21.80;99.90;;;;;;4952521;28;19948;-76
2023/12/23 12:28:30;;;;;;;;;;;21.80;99.90;;;;;;4952251;28;19926;-71
2023/12/23 12:31:06;;;;;;;;;;;21.80;99.90;;;;;;4952188;28;19918;-74
2023/12/23 12:33:35;;;;;;;;;;;21.80;99.90;;;;;;4952209;28;20016;-75
2023/12/23 12:36:02;;;;;;;;;;;21.80;99.90;;;;;;4952358;28;20352;-69
2023/12/23 12:38:28;;;;;;;;;;;21.70;99.90;;;;;;4952359;28;20290;-71
2023/12/23 12:40:55;;;;;;;;;;;21.70;99.90;;;;;;4951891;28;19914;-73
2023/12/23 12:43:24;;;;;;;;;;;21.70;99.90;;;;;;4952252;28;19911;-72
2023/12/23 12:45:51;;;;;;;;;;;21.70;99.90;;;;;;4952187;28;19998;-69
2023/12/23 12:48:18;;;;;;;;;;;21.60;99.90;;;;;;4952230;28;19914;-73
2023/12/23 12:50:44;;;;;;;;;;;21.60;99.90;;;;;;4951894;28;20283;-72
2023/12/23 12:53:15;;;;;;;;;;;21.60;99.90;;;;;;4951963;28;19917;-78
2023/12/23 12:55:41;;;;;;;;;;;21.70;99.90;;;;;;4951693;28;19918;-70
2023/12/23 12:58:08;;;;;;;;;;;21.70;99.90;;;;;;4952036;28;20390;-71
2023/12/23 13:00:35;;;;;;;;;;;21.80;99.90;;;;;;4952168;28;19945;-78
2023/12/23 13:03:01;;;;;;;;;;;21.80;99.90;;;;;;4950454;28;19911;-75
2023/12/23 13:05:28;;;;;;;;;;;21.80;99.90;;;;;;4952088;28;19941;-70
2023/12/23 13:07:55;;;;;;;;;;;21.70;99.90;;;;;;4951991;28;19911;-75
2023/12/23 13:10:22;;;;;;;;;;;21.70;99.90;;;;;;4951801;28;19910;-73
2023/12/23 13:12:49;;;;;;;;;;;21.80;99.90;;;;;;4954800;28;20029;-71
2023/12/23 13:15:16;;;;;;;;;;;21.80;99.90;;;;;;4955239;28;19918;-69
2023/12/23 13:17:43;;;;;;;;;;;21.80;99.90;;;;;;4955377;28;19910;-70
2023/12/23 13:20:11;;;;;;;;;;;21.70;99.90;;;;;;4955161;28;19911;-71
2023/12/23 13:22:38;;;;;;;;;;;21.80;99.90;;;;;;4955132;28;19926;-73
2023/12/23 13:25:09;;;;;;;;;;;21.80;99.90;;;;;;4955193;28;19911;-72
2023/12/23 13:27:35;;;;;;;;;;;21.80;99.90;;;;;;4955304;28;19918;-70
2023/12/23 13:30:03;;;;;;;;;;;21.80;99.90;;;;;;4955074;28;19941;-71
2023/12/23 13:32:32;;;;;;;;;;;21.90;99.90;;;;;;4955039;28;19954;-72
2023/12/23 13:35:00;;;;;;;;;;;21.80;99.90;;;;;;4954967;28;19925;-74
2023/12/23 13:37:27;;;;;;;;;;;21.80;99.90;;;;;;4955034;28;20443;-69
2023/12/23 13:39:54;;;;;;;;;;;21.90;99.90;;;;;;4955059;28;19921;-71
2023/12/23 13:42:21;;;;;;;;;;;21.90;99.90;;;;;;4954964;29;19911;-73
2023/12/23 13:44:47;;;;;;;;;;;21.80;99.90;;;;;;4953965;28;19957;-76
2023/12/23 13:47:14;;;;;;;;;;;21.80;99.90;;;;;;4955016;28;19937;-69
2023/12/23 13:49:41;;;;;;;;;;;21.90;99.90;;;;;;4954740;28;19915;-71
2023/12/23 13:52:09;;;;;;;;;;;21.90;99.90;;;;;;4955051;28;19911;-71
2023/12/23 13:54:36;;;;;;;;;;;21.80;99.90;;;;;;4954789;28;19960;-70
2023/12/23 13:57:02;;;;;;;;;;;21.70;99.90;;;;;;4954624;28;19918;-70
2023/12/23 13:59:29;;;;;;;;;;;21.70;99.90;;;;;;4954661;28;19911;-73
2023/12/23 14:01:56;;;;;;;;;;;21.70;99.90;;;;;;4954370;29;19916;-70
2023/12/23 14:04:22;;;;;;;;;;;21.70;99.90;;;;;;4954745;28;19911;-72
2023/12/23 14:06:49;;;;;;;;;;;21.70;99.90;;;;;;4954605;29;19911;-70
2023/12/23 14:09:17;;;;;;;;;;;21.80;99.90;;;;;;4954618;28;19911;-74
2023/12/23 14:11:43;;;;;;;;;;;21.80;99.90;;;;;;4954415;28;19997;-71
2023/12/23 14:14:10;;;;;;;;;;;21.70;99.90;;;;;;4954325;28;20395;-69
2023/12/23 14:16:37;;;;;;;;;;;21.70;99.90;;;;;;4954630;28;19969;-77